Time;durP1;ratioP1;P1;durP2;ratioP2;P2;SDS_P1;SDS_P2;PMS_P1;PMS_P2;Temp;Humidity;BMP_temperature;BMP_pressure;BME280_temperature;BME280_humidity;BME280_pressure;Samples;Min_cycle;Max_cycle;Signal;HPM_P1;HPM_P2
2023/03/25 00:01:07;;;;;;;13.15;2.40;;;9.60;99.90;;;;;;5077208;28;20234;-80
2023/03/25 00:03:36;;;;;;;11.60;2.40;;;9.60;99.90;;;;;;5076427;28;20048;-80
2023/03/25 00:06:05;;;;;;;10.57;2.40;;;9.60;99.90;;;;;;5059579;28;20040;-79
2023/03/25 00:08:31;;;;;;;10.75;2.40;;;9.60;99.90;;;;;;5076654;28;20044;-81
2023/03/25 00:11:00;;;;;;;10.18;2.05;;;9.60;99.90;;;;;;5076271;28;20042;-81
2023/03/25 00:13:26;;;;;;;9.50;2.40;;;9.60;99.90;;;;;;5056673;28;20044;-78
2023/03/25 00:15:57;;;;;;;10.63;2.20;;;9.60;99.90;;;;;;5090727;28;20063;-79
2023/03/25 00:18:24;;;;;;;8.98;2.58;;;9.50;99.90;;;;;;5057940;28;20052;-80
2023/03/25 00:20:51;;;;;;;13.35;2.88;;;9.50;99.90;;;;;;5076027;28;20794;-79
2023/03/25 00:23:18;;;;;;;9.35;2.50;;;9.50;99.90;;;;;;5047492;28;20066;-79
2023/03/25 00:25:44;;;;;;;8.18;2.38;;;9.50;99.90;;;;;;5088372;28;20040;-80
2023/03/25 00:28:11;;;;;;;8.32;2.55;;;9.40;99.90;;;;;;5066965;28;20056;-79
2023/03/25 00:30:37;;;;;;;9.60;2.65;;;9.50;99.90;;;;;;5061978;28;20897;-80
2023/03/25 00:33:03;;;;;;;10.07;2.70;;;9.40;99.90;;;;;;5058777;28;20047;-80
2023/03/25 00:35:29;;;;;;;9.07;2.80;;;9.40;99.90;;;;;;5075835;28;20044;-79
2023/03/25 00:38:01;;;;;;;11.23;3.00;;;9.40;99.90;;;;;;5076294;28;20127;-80
2023/03/25 00:40:33;;;;;;;10.18;3.05;;;9.40;99.90;;;;;;5076648;28;20056;-78
2023/03/25 00:43:00;;;;;;;7.68;3.08;;;9.40;99.90;;;;;;5076043;28;20048;-80
2023/03/25 00:45:26;;;;;;;10.70;3.50;;;9.40;99.90;;;;;;5059059;28;20047;-80
2023/03/25 00:47:51;;;;;;;8.30;3.70;;;9.40;99.90;;;;;;5075418;28;20052;-80
2023/03/25 00:50:17;;;;;;;10.90;4.00;;;9.40;99.90;;;;;;5074807;28;20472;-80
2023/03/25 00:52:43;;;;;;;8.27;4.20;;;9.30;99.90;;;;;;5059372;28;20040;-80
2023/03/25 00:55:09;;;;;;;10.63;4.20;;;9.30;99.90;;;;;;5074887;28;20051;-78
2023/03/25 00:57:35;;;;;;;9.65;4.28;;;9.30;99.90;;;;;;5075768;28;20075;-82
2023/03/25 01:00:05;;;;;;;8.77;4.40;;;9.30;99.90;;;;;;5075854;28;20080;-81
2023/03/25 01:02:32;;;;;;;9.98;4.90;;;9.30;99.90;;;;;;5058484;28;20039;-82
2023/03/25 01:04:59;;;;;;;9.10;4.68;;;9.20;99.90;;;;;;5054373;28;20048;-78
2023/03/25 01:07:24;;;;;;;11.57;4.82;;;9.30;99.90;;;;;;5072735;28;20071;-81
2023/03/25 01:09:50;;;;;;;10.20;4.47;;;9.30;99.90;;;;;;5093631;28;20068;-81
2023/03/25 01:12:17;;;;;;;12.60;5.13;;;9.30;99.90;;;;;;5075647;28;20044;-80
2023/03/25 01:14:43;;;;;;;10.82;4.93;;;9.30;99.90;;;;;;5075084;28;20372;-80
2023/03/25 01:17:10;;;;;;;11.70;4.55;;;9.30;99.90;;;;;;5093526;28;20050;-80
2023/03/25 01:19:36;;;;;;;10.45;4.30;;;9.30;99.90;;;;;;5057847;28;20090;-80
2023/03/25 01:22:01;;;;;;;11.05;4.93;;;9.30;99.90;;;;;;5075218;28;20172;-80
2023/03/25 01:24:27;;;;;;;14.38;5.20;;;9.30;99.90;;;;;;5075492;28;20077;-79
2023/03/25 01:26:53;;;;;;;13.90;4.95;;;9.30;99.90;;;;;;5075360;28;20403;-77
2023/03/25 01:29:20;;;;;;;13.15;4.68;;;9.20;99.90;;;;;;5038063;28;20036;-79
2023/03/25 01:31:46;;;;;;;12.45;4.65;;;9.20;99.90;;;;;;5084496;28;20145;-79
2023/03/25 01:34:13;;;;;;;11.65;4.70;;;9.20;99.90;;;;;;5092494;28;20052;-80
2023/03/25 01:36:40;;;;;;;11.00;4.03;;;9.10;99.90;;;;;;5092785;28;20054;-80
2023/03/25 01:39:07;;;;;;;10.30;3.80;;;9.10;99.90;;;;;;5058333;28;20047;-79
2023/03/25 01:41:35;;;;;;;10.25;3.88;;;9.20;99.90;;;;;;5074827;28;20116;-80
2023/03/25 01:44:28;;;;;;;11.18;4.00;;;9.20;99.90;;;;;;5093094;28;20059;-79
2023/03/25 01:46:56;;;;;;;10.02;3.47;;;9.20;99.90;;;;;;5092813;28;20040;-79
2023/03/25 01:49:32;;;;;;;10.32;3.42;;;9.20;99.90;;;;;;5074462;28;20048;-80
2023/03/25 01:52:08;;;;;;;12.02;3.63;;;9.20;99.90;;;;;;5074715;28;20472;-79
2023/03/25 01:54:37;;;;;;;10.48;3.33;;;9.20;99.90;;;;;;5057920;28;20044;-77
2023/03/25 01:57:04;;;;;;;13.75;3.70;;;9.20;99.90;;;;;;5075208;28;20044;-79
2023/03/25 01:59:30;;;;;;;12.48;3.85;;;9.20;99.90;;;;;;5058513;28;20109;-79
2023/03/25 02:01:58;;;;;;;12.93;3.50;;;9.10;99.90;;;;;;5073994;28;20044;-79
2023/03/25 02:04:39;;;;;;;12.35;3.65;;;9.10;99.90;;;;;;5078099;28;20368;-78
2023/03/25 02:07:10;;;;;;;11.13;3.60;;;9.00;99.90;;;;;;5075101;28;20169;-79
2023/03/25 02:09:36;;;;;;;12.68;3.90;;;9.00;99.90;;;;;;5057988;28;20131;-78
2023/03/25 02:12:02;;;;;;;12.25;3.80;;;9.00;99.90;;;;;;5074345;28;20052;-78
2023/03/25 02:14:31;;;;;;;13.30;3.40;;;9.00;99.90;;;;;;5071149;28;20052;-78
2023/03/25 02:17:25;;;;;;;12.27;3.53;;;8.90;99.90;;;;;;5056772;28;20041;-78
2023/03/25 02:20:23;;;;;;;16.23;3.90;;;8.90;99.90;;;;;;5041580;28;20048;-78
2023/03/25 02:23:07;;;;;;;13.27;4.15;;;8.80;99.90;;;;;;5034540;28;20041;-77
2023/03/25 02:25:39;;;;;;;14.18;3.90;;;8.80;99.90;;;;;;5068430;28;20491;-77
2023/03/25 02:28:14;;;;;;;;;;;8.70;99.90;;;;;;5072089;28;20486;-77
2023/03/25 02:31:00;;;;;;;15.43;3.53;;;8.70;99.90;;;;;;5069961;28;20348;-77
2023/03/25 02:33:41;;;;;;;15.30;3.88;;;8.60;99.90;;;;;;5036387;28;20041;-75
2023/03/25 02:36:47;;;;;;;13.98;3.50;;;8.60;99.90;;;;;;5037816;28;20049;-77
2023/03/25 02:39:53;;;;;;;12.07;2.80;;;8.60;99.90;;;;;;5045731;28;20037;-77
2023/03/25 02:42:32;;;;;;;12.65;3.10;;;8.70;99.90;;;;;;5039922;28;20128;-78
2023/03/25 02:45:37;;;;;;;17.25;3.47;;;8.60;99.90;;;;;;5054833;28;20045;-77
2023/03/25 02:48:17;;;;;;;13.82;3.15;;;8.50;99.90;;;;;;5025075;28;20053;-78
2023/03/25 02:50:54;;;;;;;15.57;3.38;;;8.50;99.90;;;;;;5070477;28;20068;-78
2023/03/25 02:53:32;;;;;;;15.65;3.38;;;8.40;99.90;;;;;;5041860;28;20073;-78
2023/03/25 02:56:07;;;;;;;14.85;3.35;;;8.40;99.90;;;;;;5061573;28;20487;-79
2023/03/25 02:58:34;;;;;;;17.40;3.90;;;8.30;99.90;;;;;;5057646;28;20044;-79
2023/03/25 03:01:00;;;;;;;14.02;3.50;;;8.30;99.90;;;;;;5061530;28;20051;-78
2023/03/25 03:03:27;;;;;;;15.80;3.70;;;8.30;99.90;;;;;;5059991;28;20113;-78
2023/03/25 03:05:57;;;;;;;15.20;4.22;;;8.40;99.90;;;;;;5074438;28;20123;-79
2023/03/25 03:09:05;;;;;;;15.55;3.60;;;8.40;99.90;;;;;;5063721;28;20048;-78
2023/03/25 03:12:10;;;;;;;12.95;3.97;;;8.30;99.90;;;;;;5054035;28;20053;-79
2023/03/25 03:14:35;;;;;;;16.13;3.75;;;8.30;99.90;;;;;;5063421;28;20040;-77
2023/03/25 03:17:37;;;;;;;15.05;3.78;;;8.30;99.90;;;;;;5066386;28;20045;-76
2023/03/25 03:20:18;;;;;;;18.02;3.60;;;8.30;99.90;;;;;;5042374;28;20114;-77
2023/03/25 03:23:00;;;;;;;19.95;3.90;;;8.30;99.90;;;;;;5042217;28;20049;-76
2023/03/25 03:25:40;;;;;;;17.98;3.80;;;8.30;99.90;;;;;;5052888;28;20520;-77
2023/03/25 03:28:12;;;;;;;15.52;3.72;;;8.30;99.90;;;;;;5048930;28;20048;-77
2023/03/25 03:30:47;;;;;;;17.40;3.78;;;8.30;99.90;;;;;;5060533;28;20033;-77
2023/03/25 03:33:24;;;;;;;17.73;3.53;;;8.40;99.90;;;;;;5063348;28;20126;-78
2023/03/25 03:36:12;;;;;;;19.10;4.07;;;8.30;99.90;;;;;;5053541;28;20048;-79
2023/03/25 03:38:45;;;;;;;19.50;3.92;;;8.30;99.90;;;;;;5071473;28;20372;-79
2023/03/25 03:41:15;;;;;;;14.55;3.30;;;8.30;99.90;;;;;;5066077;28;20037;-79
2023/03/25 03:43:51;;;;;;;19.90;3.78;;;8.40;99.90;;;;;;5059699;28;20052;-78
2023/03/25 03:46:27;;;;;;;14.35;3.47;;;8.40;99.90;;;;;;5090946;28;20116;-80
2023/03/25 03:48:56;;;;;;;15.40;3.50;;;8.40;99.90;;;;;;5056634;28;20032;-79
2023/03/25 03:51:24;;;;;;;17.25;3.72;;;8.40;99.90;;;;;;5063738;28;20060;-78
2023/03/25 03:54:07;;;;;;;18.58;3.47;;;8.40;99.90;;;;;;5052330;28;20051;-79
2023/03/25 03:56:40;;;;;;;14.93;3.28;;;8.40;99.90;;;;;;5063394;28;20447;-80
2023/03/25 03:59:14;;;;;;;;;;;8.40;99.90;;;;;;5053920;28;20056;-78
2023/03/25 04:01:44;;;;;;;14.45;3.15;;;8.40;99.90;;;;;;5070606;28;19921;-80
2023/03/25 04:04:19;;;;;;;15.98;3.50;;;8.30;99.90;;;;;;5050460;28;20049;-79
2023/03/25 04:07:13;;;;;;;19.77;3.80;;;8.30;99.90;;;;;;5080329;28;20075;-79
2023/03/25 04:09:56;;;;;;;17.90;3.90;;;8.30;99.90;;;;;;5052807;28;20515;-80
2023/03/25 04:12:26;;;;;;;13.90;3.20;;;8.30;99.90;;;;;;5070104;28;20090;-79
2023/03/25 04:14:54;;;;;;;16.23;4.00;;;8.40;99.90;;;;;;5054893;28;20057;-78
2023/03/25 04:17:21;;;;;;;17.15;4.05;;;8.40;99.90;;;;;;5050983;28;20072;-80
2023/03/25 04:19:47;;;;;;;17.30;4.20;;;8.40;99.90;;;;;;5060873;28;20051;-79
2023/03/25 04:22:16;;;;;;;18.08;3.88;;;8.40;99.90;;;;;;5054565;28;20502;-80
2023/03/25 04:24:42;;;;;;;16.35;4.10;;;8.40;99.90;;;;;;5073268;28;20118;-79
2023/03/25 04:27:12;;;;;;;16.17;3.92;;;8.30;99.90;;;;;;5070773;28;20040;-79
2023/03/25 04:29:42;;;;;;;18.08;3.72;;;8.40;99.90;;;;;;5061420;28;20155;-79
2023/03/25 04:32:11;;;;;;;16.20;3.35;;;8.40;99.90;;;;;;5051052;28;20085;-78
2023/03/25 04:34:37;;;;;;;13.30;4.05;;;8.30;99.90;;;;;;5043665;28;20045;-80
2023/03/25 04:37:03;;;;;;;16.38;3.92;;;8.30;99.90;;;;;;5073110;28;20040;-80
2023/03/25 04:39:31;;;;;;;14.20;3.80;;;8.30;99.90;;;;;;5032799;28;20581;-80
2023/03/25 04:42:00;;;;;;;16.33;4.03;;;8.30;99.90;;;;;;5053917;28;20043;-79
2023/03/25 04:44:27;;;;;;;15.68;3.90;;;8.30;99.90;;;;;;5072966;28;20048;-79
2023/03/25 04:46:56;;;;;;;14.73;3.97;;;8.30;99.90;;;;;;5040898;28;20090;-80
2023/03/25 04:49:23;;;;;;;16.88;4.35;;;8.20;99.90;;;;;;5062116;28;20138;-80
2023/03/25 04:51:51;;;;;;;16.05;4.88;;;8.20;99.90;;;;;;5052521;28;20056;-80
2023/03/25 04:54:20;;;;;;;16.00;4.50;;;8.20;99.90;;;;;;5044499;28;20075;-79
2023/03/25 04:56:48;;;;;;;14.90;4.43;;;8.30;99.90;;;;;;5057970;28;20049;-79
2023/03/25 04:59:15;;;;;;;14.77;4.65;;;8.30;99.90;;;;;;5052770;28;20412;-79
2023/03/25 05:01:41;;;;;;;16.67;4.75;;;8.30;99.90;;;;;;5053707;28;20069;-77
2023/03/25 05:04:11;;;;;;;15.48;4.50;;;8.30;99.90;;;;;;5070594;28;20040;-80
2023/03/25 05:06:43;;;;;;;17.23;4.57;;;8.20;99.90;;;;;;5055727;28;20052;-79
2023/03/25 05:09:11;;;;;;;17.13;4.97;;;8.20;99.90;;;;;;5054941;28;20437;-80
2023/03/25 05:11:38;;;;;;;19.75;4.80;;;8.20;99.90;;;;;;5052434;28;20044;-80
2023/03/25 05:14:09;;;;;;;19.20;5.00;;;8.20;99.90;;;;;;5059736;28;20419;-77
2023/03/25 05:16:35;;;;;;;16.55;5.05;;;8.20;99.90;;;;;;5075831;28;20054;-79
2023/03/25 05:19:05;;;;;;;16.20;4.90;;;8.20;99.90;;;;;;5093179;28;20039;-79
2023/03/25 05:21:34;;;;;;;15.63;5.10;;;8.20;99.90;;;;;;5075143;28;20050;-79
2023/03/25 05:24:01;;;;;;;16.05;5.10;;;8.20;99.90;;;;;;5058607;28;20044;-78
2023/03/25 05:26:33;;;;;;;16.70;5.22;;;8.20;99.90;;;;;;5075356;28;20073;-80
2023/03/25 05:29:03;;;;;;;15.60;5.95;;;8.20;99.90;;;;;;5074848;28;20115;-79
2023/03/25 05:31:29;;;;;;;17.40;5.60;;;8.20;99.90;;;;;;5055443;28;20079;-77
2023/03/25 05:33:55;;;;;;;14.55;5.63;;;8.20;99.90;;;;;;5078407;28;20042;-78
2023/03/25 05:36:24;;;;;;;14.10;5.97;;;8.20;99.90;;;;;;5075152;28;20039;-79
2023/03/25 05:38:50;;;;;;;15.77;6.32;;;8.30;99.90;;;;;;5093401;28;20071;-78
2023/03/25 05:41:16;;;;;;;18.05;6.22;;;8.30;99.90;;;;;;5075382;28;20058;-78
2023/03/25 05:43:46;;;;;;;17.20;7.15;;;8.30;99.90;;;;;;5093201;28;20086;-80
2023/03/25 05:46:13;;;;;;;13.07;5.90;;;8.30;99.90;;;;;;5073806;28;20061;-78
2023/03/25 05:48:40;;;;;;;15.02;6.38;;;8.30;99.90;;;;;;5057848;28;20123;-76
2023/03/25 05:51:15;;;;;;;16.40;6.90;;;8.40;99.90;;;;;;5091535;28;20119;-76
2023/03/25 05:53:42;;;;;;;19.00;7.10;;;8.40;99.90;;;;;;5075352;28;20036;-76
2023/03/25 05:56:10;;;;;;;20.48;7.18;;;8.30;99.90;;;;;;5074822;28;20063;-75
2023/03/25 05:58:36;;;;;;;15.07;6.47;;;8.30;99.90;;;;;;5074749;28;20040;-76
2023/03/25 06:01:03;;;;;;;15.02;5.95;;;8.30;99.90;;;;;;5092887;28;20054;-77
2023/03/25 06:03:29;;;;;;;11.40;5.47;;;8.30;99.90;;;;;;5040720;28;20176;-76
2023/03/25 06:05:55;;;;;;;12.77;4.35;;;8.30;99.90;;;;;;5074499;28;20081;-77
2023/03/25 06:08:25;;;;;;;13.18;3.97;;;8.20;99.90;;;;;;5075169;28;20044;-76
2023/03/25 06:11:00;;;;;;;12.27;2.92;;;8.20;99.90;;;;;;5074476;28;20055;-76
2023/03/25 06:13:27;;;;;;;7.85;1.92;;;8.10;99.90;;;;;;5074482;28;20054;-77
2023/03/25 06:15:56;;;;;;;10.20;2.28;;;8.20;99.90;;;;;;5066904;28;20191;-76
2023/03/25 06:18:25;;;;;;;8.32;2.10;;;8.20;99.90;;;;;;5078952;28;20446;-77
2023/03/25 06:20:53;;;;;;;9.50;2.10;;;8.20;99.90;;;;;;5066890;28;20195;-77
2023/03/25 06:23:25;;;;;;;9.35;1.90;;;8.30;99.90;;;;;;5076784;28;20380;-77
2023/03/25 06:25:51;;;;;;;8.73;2.17;;;8.30;99.90;;;;;;5078436;28;20072;-77
2023/03/25 06:28:18;;;;;;;11.13;2.50;;;8.20;99.90;;;;;;5078831;28;20040;-77
2023/03/25 06:30:48;;;;;;;10.10;3.03;;;8.20;99.90;;;;;;5058962;28;20048;-78
2023/03/25 06:33:14;;;;;;;12.15;3.92;;;8.20;99.90;;;;;;5072409;28;20173;-75
2023/03/25 06:35:48;;;;;;;14.18;4.55;;;8.20;99.90;;;;;;5078177;28;20042;-76
2023/03/25 06:38:14;;;;;;;15.07;4.15;;;8.30;99.90;;;;;;5076541;28;20471;-77
2023/03/25 06:40:40;;;;;;;14.85;3.95;;;8.30;99.90;;;;;;5096218;28;20040;-76
2023/03/25 06:43:05;;;;;;;14.50;3.65;;;8.30;99.90;;;;;;5068366;28;20036;-77
2023/03/25 06:45:32;;;;;;;13.18;3.67;;;8.30;99.90;;;;;;5064834;28;20094;-77
2023/03/25 06:47:59;;;;;;;11.73;3.40;;;8.30;99.90;;;;;;5092232;28;20048;-78
2023/03/25 06:50:25;;;;;;;13.15;3.10;;;8.30;99.90;;;;;;5059915;28;20151;-77
2023/03/25 06:52:51;;;;;;;11.45;2.97;;;8.30;99.90;;;;;;5087403;28;20036;-78
2023/03/25 06:55:16;;;;;;;12.13;2.88;;;8.20;99.90;;;;;;5071118;28;20051;-79
2023/03/25 06:57:42;;;;;;;12.38;3.08;;;8.30;99.90;;;;;;5086910;28;20082;-78
2023/03/25 07:00:10;;;;;;;8.40;2.70;;;8.30;99.90;;;;;;5085944;28;20111;-77
2023/03/25 07:02:37;;;;;;;13.23;3.15;;;8.30;99.90;;;;;;5076580;28;20047;-77
2023/03/25 07:05:04;;;;;;;12.13;2.95;;;8.30;99.90;;;;;;5080911;28;20046;-79
2023/03/25 07:07:29;;;;;;;13.35;3.40;;;8.30;99.90;;;;;;5076875;28;20196;-78
2023/03/25 07:09:55;;;;;;;13.13;3.42;;;8.60;99.90;;;;;;5076797;28;20513;-78
2023/03/25 07:12:22;;;;;;;16.05;3.58;;;8.80;99.90;;;;;;5085377;28;20052;-78
2023/03/25 07:14:56;;;;;;;15.18;3.33;;;9.00;99.90;;;;;;5089247;28;20048;-77
2023/03/25 07:17:22;;;;;;;14.15;3.33;;;9.20;99.90;;;;;;5074251;28;20286;-77
2023/03/25 07:19:48;;;;;;;16.15;3.75;;;9.30;99.90;;;;;;5078313;28;20040;-80
2023/03/25 07:22:14;;;;;;;13.98;3.33;;;9.40;99.90;;;;;;5083777;28;20161;-79
2023/03/25 07:24:40;;;;;;;15.07;3.40;;;9.50;99.90;;;;;;5075797;28;20043;-78
2023/03/25 07:27:06;;;;;;;16.33;3.65;;;9.60;99.90;;;;;;5089893;28;20040;-80
2023/03/25 07:29:32;;;;;;;14.98;3.40;;;9.70;99.90;;;;;;5090105;28;20535;-80
2023/03/25 07:31:57;;;;;;;14.13;3.30;;;9.80;99.90;;;;;;5056100;28;20464;-79
2023/03/25 07:34:24;;;;;;;12.77;3.53;;;9.90;99.90;;;;;;5089213;28;20101;-78
2023/03/25 07:36:50;;;;;;;15.77;3.33;;;10.00;99.90;;;;;;5092430;28;20375;-80
2023/03/25 07:39:17;;;;;;;13.38;3.35;;;10.00;99.90;;;;;;5074673;28;20043;-79
2023/03/25 07:41:43;;;;;;;17.02;3.67;;;10.10;99.90;;;;;;5084804;28;20093;-80
2023/03/25 07:44:09;;;;;;;16.25;3.78;;;10.30;99.90;;;;;;5087210;28;20036;-76
2023/03/25 07:46:34;;;;;;;15.80;3.58;;;10.40;99.90;;;;;;5073828;28;20052;-80
2023/03/25 07:49:00;;;;;;;15.25;3.60;;;10.40;99.90;;;;;;5057611;28;20039;-79
2023/03/25 07:51:26;;;;;;;15.15;3.95;;;10.40;99.90;;;;;;5073194;28;20105;-75
2023/03/25 07:53:52;;;;;;;18.33;3.95;;;10.20;99.90;;;;;;5059250;28;20379;-80
2023/03/25 07:56:17;;;;;;;14.45;3.58;;;10.00;99.90;;;;;;5074463;28;20344;-78
2023/03/25 07:58:44;;;;;;;17.25;3.45;;;9.80;99.90;;;;;;5090316;28;20051;-80
2023/03/25 08:01:09;;;;;;;14.50;3.35;;;9.60;99.90;;;;;;5092415;28;20123;-75
2023/03/25 08:03:38;;;;;;;14.32;3.10;;;9.50;99.90;;;;;;5088942;28;20432;-75
2023/03/25 08:06:05;;;;;;;16.17;4.13;;;9.50;99.90;;;;;;5059566;28;20115;-78
2023/03/25 08:08:31;;;;;;;16.58;3.60;;;9.40;99.90;;;;;;5060445;28;20040;-80
2023/03/25 08:10:58;;;;;;;16.88;3.47;;;9.30;99.90;;;;;;5076169;28;20040;-78
2023/03/25 08:13:24;;;;;;;19.33;3.63;;;9.30;99.90;;;;;;5071858;28;20488;-81
2023/03/25 08:15:50;;;;;;;16.80;3.45;;;9.30;99.90;;;;;;5080770;28;20040;-77
2023/03/25 08:18:16;;;;;;;16.38;3.55;;;9.30;99.90;;;;;;5073545;28;20063;-80
2023/03/25 08:20:42;;;;;;;17.30;3.20;;;9.40;99.90;;;;;;5072305;28;20040;-77
2023/03/25 08:23:09;;;;;;;15.65;3.35;;;9.40;99.90;;;;;;5090318;28;20040;-78
2023/03/25 08:25:36;;;;;;;12.88;3.08;;;9.40;99.90;;;;;;5078656;28;20071;-80
2023/03/25 08:28:03;;;;;;;19.58;3.25;;;9.40;99.90;;;;;;5078201;28;20058;-80
2023/03/25 08:30:29;;;;;;;18.67;3.22;;;9.40;99.90;;;;;;5059624;28;20054;-81
2023/03/25 08:32:55;;;;;;;15.55;3.20;;;9.40;99.90;;;;;;5077319;28;20456;-79
2023/03/25 08:35:22;;;;;;;18.67;3.60;;;9.30;99.90;;;;;;5091958;28;20062;-78
2023/03/25 08:37:48;;;;;;;17.95;3.58;;;9.30;99.90;;;;;;5074103;28;20398;-78
2023/03/25 08:40:18;;;;;;;19.58;3.80;;;9.30;99.90;;;;;;5053639;28;20105;-81
2023/03/25 08:42:45;;;;;;;17.10;3.28;;;9.30;99.90;;;;;;5086891;28;20091;-77
2023/03/25 08:45:12;;;;;;;19.45;3.63;;;9.40;99.90;;;;;;5057877;28;20036;-78
2023/03/25 08:47:38;;;;;;;18.77;3.70;;;9.50;99.90;;;;;;5054737;28;20052;-79
2023/03/25 08:50:05;;;;;;;17.55;3.88;;;9.50;99.90;;;;;;5078967;28;20043;-79
2023/03/25 08:52:30;;;;;;;20.25;3.95;;;9.50;99.90;;;;;;5083045;28;20452;-80
2023/03/25 08:54:56;;;;;;;17.15;3.47;;;9.60;99.90;;;;;;5091173;28;20123;-80
2023/03/25 08:57:22;;;;;;;13.93;3.10;;;9.60;99.90;;;;;;5083319;28;20044;-81
2023/03/25 08:59:49;;;;;;;19.88;3.80;;;9.60;99.90;;;;;;5086370;28;20116;-80
2023/03/25 09:02:14;;;;;;;19.35;3.53;;;9.70;99.90;;;;;;5056994;28;20045;-79
2023/03/25 09:04:40;;;;;;;17.88;3.10;;;9.70;99.90;;;;;;5083988;28;20058;-79
2023/03/25 09:07:09;;;;;;;12.80;2.83;;;9.80;99.90;;;;;;5093285;28;20040;-77
2023/03/25 09:09:36;;;;;;;14.45;3.42;;;9.90;99.90;;;;;;5083577;28;20044;-80
2023/03/25 09:12:03;;;;;;;17.75;3.58;;;10.00;99.90;;;;;;5082376;28;20157;-79
2023/03/25 09:14:29;;;;;;;13.15;3.00;;;10.10;99.90;;;;;;5072090;28;20051;-79
2023/03/25 09:16:55;;;;;;;15.52;3.28;;;10.20;99.90;;;;;;5084871;28;20358;-77
2023/03/25 09:19:21;;;;;;;14.88;3.30;;;10.30;99.90;;;;;;5053003;28;20044;-79
2023/03/25 09:21:47;;;;;;;18.95;3.75;;;10.40;99.90;;;;;;5083434;28;20044;-76
2023/03/25 09:24:12;;;;;;;15.93;3.15;;;10.50;99.90;;;;;;5090898;28;20039;-79
2023/03/25 09:26:38;;;;;;;15.15;3.35;;;10.60;99.90;;;;;;5055080;28;20134;-79
2023/03/25 09:29:04;;;;;;;18.30;3.67;;;10.70;99.90;;;;;;5086215;28;20028;-79
2023/03/25 09:31:30;;;;;;;14.80;3.70;;;10.60;99.90;;;;;;5059448;28;20127;-78
2023/03/25 09:33:56;;;;;;;18.50;3.78;;;10.50;99.90;;;;;;5090449;28;20518;-79
2023/03/25 09:36:22;;;;;;;11.85;2.55;;;10.40;99.90;;;;;;5056808;28;20052;-79
2023/03/25 09:38:48;;;;;;;13.52;2.80;;;10.20;99.90;;;;;;5066592;28;20056;-78
2023/03/25 09:41:28;;;;;;;13.75;3.03;;;10.10;99.90;;;;;;5073125;28;20043;-79
2023/03/25 09:44:10;;;;;;;13.52;3.00;;;9.90;99.90;;;;;;5074465;28;20032;-78
2023/03/25 09:46:38;;;;;;;19.98;3.60;;;9.80;99.90;;;;;;5076246;28;20387;-79
2023/03/25 09:49:09;;;;;;;15.35;3.42;;;9.80;99.90;;;;;;5070219;28;20474;-76
2023/03/25 09:51:36;;;;;;;17.77;3.75;;;9.90;99.90;;;;;;5073760;28;20052;-79
2023/03/25 09:54:17;;;;;;;20.95;3.42;;;10.20;99.90;;;;;;5066990;28;20067;-78
2023/03/25 09:56:43;;;;;;;17.73;3.80;;;10.40;99.90;;;;;;5064408;28;20055;-78
2023/03/25 09:59:19;;;;;;;15.95;3.47;;;10.30;99.90;;;;;;5078046;28;20044;-79
2023/03/25 10:02:17;;;;;;;16.20;3.35;;;10.30;99.90;;;;;;5075341;28;20432;-79
2023/03/25 10:05:09;;;;;;;17.77;3.33;;;10.20;99.90;;;;;;5052318;28;20044;-79
2023/03/25 10:07:56;;;;;;;17.58;3.65;;;10.20;99.90;;;;;;5057365;28;20052;-79
2023/03/25 10:10:55;;;;;;;15.65;2.95;;;10.20;99.90;;;;;;5079325;28;20079;-79
2023/03/25 10:13:42;;;;;;;19.60;3.60;;;10.20;99.90;;;;;;5067894;28;20139;-77
2023/03/25 10:16:22;;;;;;;16.63;3.70;;;10.20;99.90;;;;;;5083713;28;20480;-78
2023/03/25 10:19:02;;;;;;;14.95;3.17;;;10.20;99.90;;;;;;5070125;28;20044;-78
2023/03/25 10:21:37;;;;;;;15.52;3.25;;;10.20;99.90;;;;;;5073876;28;20071;-79
2023/03/25 10:24:11;;;;;;;20.60;3.75;;;10.20;99.90;;;;;;5076548;28;20375;-78
2023/03/25 10:26:55;;;;;;;18.95;3.55;;;10.10;99.90;;;;;;5085334;28;20044;-77
2023/03/25 10:29:52;;;;;;;17.40;3.28;;;10.00;99.90;;;;;;5090419;28;20044;-78
2023/03/25 10:32:39;;;;;;;17.00;3.40;;;10.00;99.90;;;;;;5065545;28;20087;-78
2023/03/25 10:35:27;;;;;;;18.20;3.60;;;10.10;99.90;;;;;;5092271;28;20117;-76
2023/03/25 10:37:56;;;;;;;14.45;2.70;;;10.20;99.90;;;;;;5083161;28;20059;-79
2023/03/25 10:40:30;;;;;;;20.58;3.35;;;10.30;99.90;;;;;;5063822;28;20051;-79
2023/03/25 10:43:20;;;;;;;20.33;3.38;;;10.40;99.90;;;;;;5070034;28;20044;-79
2023/03/25 10:45:48;;;;;;;15.90;3.40;;;10.40;99.90;;;;;;5067918;28;20103;-78
2023/03/25 10:48:34;;;;;;;14.10;3.10;;;10.50;99.90;;;;;;5075824;28;20043;-81
2023/03/25 10:51:07;;;;;;;15.95;3.10;;;10.50;99.90;;;;;;5071020;28;20380;-79
2023/03/25 10:53:33;;;;;;;;;;;10.40;99.90;;;;;;5072094;28;20051;-77
2023/03/25 10:56:09;;;;;;;14.07;2.75;;;10.30;99.90;;;;;;5085158;28;19916;-82
2023/03/25 10:58:38;;;;;;;14.07;2.85;;;10.30;99.90;;;;;;5057639;28;20036;-77
2023/03/25 11:01:13;;;;;;;17.23;2.95;;;10.20;99.90;;;;;;5073644;28;20032;-80
2023/03/25 11:03:40;;;;;;;16.05;3.10;;;10.20;99.90;;;;;;5074158;28;20048;-78
2023/03/25 11:06:12;;;;;;;14.98;3.00;;;10.40;99.90;;;;;;5073950;28;20044;-77
2023/03/25 11:09:07;;;;;;;17.73;2.95;;;10.50;99.90;;;;;;5075869;28;20051;-79
2023/03/25 11:11:36;;;;;;;15.68;3.28;;;10.40;99.90;;;;;;5070504;28;20495;-79
2023/03/25 11:14:02;;;;;;;18.35;3.35;;;10.30;99.90;;;;;;5074628;28;20040;-78
2023/03/25 11:16:51;;;;;;;15.73;3.03;;;10.30;99.90;;;;;;5084814;28;20044;-78
2023/03/25 11:19:30;;;;;;;15.60;2.90;;;10.40;99.90;;;;;;5073048;28;20460;-79
2023/03/25 11:22:00;;;;;;;16.52;3.33;;;10.50;99.90;;;;;;5060179;28;20044;-78
2023/03/25 11:24:31;;;;;;;19.58;3.47;;;10.60;99.90;;;;;;5076616;28;20052;-80
2023/03/25 11:26:57;;;;;;;18.50;2.95;;;10.60;99.90;;;;;;5092915;28;20109;-80
2023/03/25 11:29:26;;;;;;;15.15;3.20;;;10.60;99.90;;;;;;5039363;28;20047;-80
2023/03/25 11:32:06;;;;;;;19.92;3.22;;;10.70;99.90;;;;;;5084863;28;20247;-78
2023/03/25 11:34:40;;;;;;;14.80;3.05;;;10.90;99.90;;;;;;5067200;28;20043;-81
2023/03/25 11:37:14;;;;;;;17.58;3.17;;;11.10;99.90;;;;;;5086830;28;20048;-77
2023/03/25 11:39:42;;;;;;;14.43;3.15;;;11.30;99.90;;;;;;5076898;28;20471;-78
2023/03/25 11:42:15;;;;;;;15.88;3.13;;;11.40;99.90;;;;;;5072982;28;20053;-77
2023/03/25 11:44:41;;;;;;;14.55;3.25;;;11.50;99.90;;;;;;5073583;28;20040;-78
2023/03/25 11:47:09;;;;;;;13.98;2.97;;;11.60;99.90;;;;;;5088854;28;20039;-78
2023/03/25 11:49:37;;;;;;;13.35;3.10;;;11.60;99.90;;;;;;5076346;28;20047;-80
2023/03/25 11:52:13;;;;;;;16.60;3.05;;;11.60;99.90;;;;;;5088905;28;20044;-78
2023/03/25 11:54:40;;;;;;;12.88;2.80;;;11.60;99.90;;;;;;5074033;28;20048;-77
2023/03/25 11:57:15;;;;;;;14.38;3.13;;;11.60;99.90;;;;;;5089692;28;20090;-77
2023/03/25 11:59:49;;;;;;;18.35;3.10;;;11.60;99.90;;;;;;5097334;28;20044;-79
2023/03/25 12:02:35;;;;;;;14.63;2.85;;;11.60;99.90;;;;;;5076281;28;20089;-79
2023/03/25 12:05:11;;;;;;;15.38;3.13;;;11.60;99.90;;;;;;5076619;28;20048;-78
2023/03/25 12:07:47;;;;;;;12.95;2.70;;;11.70;99.90;;;;;;5074495;28;20044;-77
2023/03/25 12:10:31;;;;;;;14.02;2.60;;;11.70;99.90;;;;;;5078562;28;20052;-78
2023/03/25 12:13:26;;;;;;;12.50;2.53;;;11.60;99.90;;;;;;5075999;28;20039;-78
2023/03/25 12:16:23;;;;;;;12.00;2.60;;;11.50;99.90;;;;;;5082611;28;20501;-78
2023/03/25 12:19:18;;;;;;;10.55;2.00;;;11.50;99.90;;;;;;5066615;28;20048;-77
2023/03/25 12:21:59;;;;;;;12.40;2.70;;;11.60;99.90;;;;;;5055455;28;20040;-77
2023/03/25 12:25:03;;;;;;;16.30;2.80;;;11.70;99.90;;;;;;5064205;28;20048;-79
2023/03/25 12:27:56;;;;;;;11.23;2.40;;;11.70;99.90;;;;;;5083809;28;20754;-79
2023/03/25 12:30:45;;;;;;;13.27;2.70;;;11.70;99.90;;;;;;5084266;28;20077;-80
2023/03/25 12:33:59;;;;;;;13.48;2.60;;;11.70;99.90;;;;;;5090958;28;20043;-78
2023/03/25 12:37:05;;;;;;;15.68;2.88;;;11.60;99.90;;;;;;5043955;28;20061;-78
2023/03/25 12:39:39;;;;;;;17.20;2.95;;;11.60;99.90;;;;;;5092133;28;20091;-77
2023/03/25 12:42:20;;;;;;;12.52;2.70;;;11.50;99.90;;;;;;5075137;28;20044;-77
2023/03/25 12:45:20;;;;;;;11.73;2.55;;;11.50;99.90;;;;;;5072762;28;20036;-78
2023/03/25 12:48:10;;;;;;;13.43;2.50;;;11.60;99.90;;;;;;5064557;28;20044;-78
2023/03/25 12:50:45;;;;;;;15.13;2.72;;;11.70;99.90;;;;;;5071584;28;20081;-78
2023/03/25 12:53:33;;;;;;;15.30;3.20;;;11.80;99.90;;;;;;5073148;28;20067;-79
2023/03/25 12:56:15;;;;;;;13.00;2.83;;;11.70;99.90;;;;;;5090713;28;20048;-79
2023/03/25 12:59:08;;;;;;;15.27;2.90;;;11.80;99.90;;;;;;5072853;28;20066;-78
2023/03/25 13:01:53;;;;;;;14.23;2.90;;;11.80;99.90;;;;;;5056689;28;20054;-77
2023/03/25 13:04:22;;;;;;;16.50;3.10;;;11.90;99.90;;;;;;5090168;28;20128;-77
2023/03/25 13:07:00;;;;;;;9.82;2.50;;;12.00;99.90;;;;;;5086113;28;20063;-77
2023/03/25 13:09:59;;;;;;;13.75;2.95;;;12.10;99.90;;;;;;5090674;28;20043;-76
2023/03/25 13:12:34;;;;;;;11.43;2.50;;;12.10;99.90;;;;;;5049197;28;20676;-75